HNL weather

Daniel K Inouye International Airport
Honolulu, Hawaii, United States

Public forecast

Using degrees Fahrenheit for public forecast. Weather courtesy of forecast.io.

METAR (pilot weather report)

Retrieved 2017/08/16 17:53 UTC (40 minutes ago):

PHNL 161753Z 03009KT 10SM FEW025 SCT040 SCT060 26/21 A2999

TAF (pilot weather forecast)

Retrieved 2017/08/16 18:39 UTC (0 seconds ago):

TAF PHNL 161737Z 1618/1724 06008KT P6SM FEW025 SCT045 SCT060 FM162000 06015G22KT P6SM FEW030 SCT050 FM170500 06008KT P6SM FEW025 SCT045 BKN060 FM172000 06012G18KT P6SM FEW030 SCT050